Dasher, Georgia
Current Conditions -  °F | °C
As of 9:53 PM on Sunday 23 Nov 2014 (Local Time) from KVLD Reporting Station
Broken Clouds Broken Clouds  
Wind Chill: 65°   Ceiling: 9000
Heat Index: 65°   Visibility: 10mi
Dew Point: 63°   Wind: 3mph
Humidity: 93%   Direction: 190°S
Pressure: 29.87"   Gusts: NA
Location:  30.7579°N, 83.3062°W
Report Text: KVLD 240253Z AUTO 19003KT 10SM SCT070 BKN090 BKN110 18/17 A2987 RMK AO2 RAE03 TSE00 SLP122 P0000 60016 T01830172 53003 $
Loading
Personal Weather Stations






























Interactive Weather Map New forecast layout! Learn more

10-Day Weather Forecast

Advertisements
Track Severe Weather on mobile